createdAt,value
2023-03-18T00:01:16.334Z,8.43
2023-03-18T00:03:43.101Z,8.32
2023-03-18T00:06:18.746Z,8.07
2023-03-18T00:08:47.335Z,8.80
2023-03-18T00:11:15.971Z,7.55
2023-03-18T00:13:42.882Z,8.30
2023-03-18T00:16:11.603Z,6.75
2023-03-18T00:18:40.378Z,8.40
2023-03-18T00:21:07.166Z,9.93
2023-03-18T00:23:34.615Z,8.07
2023-03-18T00:26:05.228Z,8.02
2023-03-18T00:28:32.750Z,8.43
2023-03-18T00:31:08.623Z,9.18
2023-03-18T00:33:38.129Z,6.78
2023-03-18T00:36:06.504Z,9.60
2023-03-18T00:38:33.714Z,8.90
2023-03-18T00:41:15.930Z,9.18
2023-03-18T00:43:54.816Z,6.60
2023-03-18T00:46:30.940Z,7.13
2023-03-18T00:49:00.429Z,8.15
2023-03-18T00:51:29.712Z,12.32
2023-03-18T00:53:59.434Z,11.60
2023-03-18T00:56:28.579Z,7.80
2023-03-18T00:58:55.297Z,12.25
2023-03-18T01:01:23.245Z,8.75
2023-03-18T01:03:50.484Z,9.88
2023-03-18T01:06:23.937Z,9.35
2023-03-18T01:08:51.724Z,7.35
2023-03-18T01:11:18.797Z,9.25
2023-03-18T01:13:46.142Z,6.95
2023-03-18T01:16:13.495Z,7.85
2023-03-18T01:18:41.525Z,8.88
2023-03-18T01:21:10.252Z,7.45
2023-03-18T01:23:38.030Z,11.25
2023-03-18T01:26:06.299Z,7.13
2023-03-18T01:28:33.940Z,10.68
2023-03-18T01:31:01.754Z,7.53
2023-03-18T01:33:29.860Z,8.18
2023-03-18T01:36:00.350Z,8.10
2023-03-18T01:38:31.608Z,8.27
2023-03-18T01:41:00.327Z,7.32
2023-03-18T01:43:35.991Z,9.40
2023-03-18T01:46:29.026Z,9.13
2023-03-18T01:48:56.730Z,5.55
2023-03-18T01:51:26.772Z,8.07
2023-03-18T01:53:54.532Z,6.30
2023-03-18T01:56:22.193Z,7.47
2023-03-18T01:58:52.266Z,8.00
2023-03-18T02:01:26.467Z,9.18
2023-03-18T02:03:55.383Z,7.57
2023-03-18T02:06:22.804Z,7.18
2023-03-18T02:08:49.728Z,6.65
2023-03-18T02:11:16.722Z,6.70
2023-03-18T02:13:46.048Z,7.72
2023-03-18T02:16:28.185Z,7.45
2023-03-18T02:18:59.916Z,6.47
2023-03-18T02:21:38.601Z,10.30
2023-03-18T02:24:35.714Z,6.22
2023-03-18T02:27:20.597Z,9.10
2023-03-18T02:29:49.349Z,7.13
2023-03-18T02:32:17.144Z,5.88
2023-03-18T02:34:45.672Z,5.32
2023-03-18T02:37:13.034Z,7.03
2023-03-18T02:39:39.871Z,6.07
2023-03-18T02:42:10.958Z,6.82
2023-03-18T02:44:43.845Z,4.50
2023-03-18T02:47:15.783Z,6.53
2023-03-18T02:49:43.661Z,7.70
2023-03-18T02:52:15.028Z,9.20
2023-03-18T02:54:43.081Z,6.60
2023-03-18T02:57:09.828Z,6.88
2023-03-18T02:59:36.575Z,8.52
2023-03-18T03:02:04.250Z,8.27
2023-03-18T03:04:31.995Z,6.97
2023-03-18T03:06:59.342Z,9.32
2023-03-18T03:09:26.112Z,7.68
2023-03-18T03:11:53.065Z,9.07
2023-03-18T03:14:19.869Z,6.72
2023-03-18T03:16:47.404Z,11.88
2023-03-18T03:19:14.178Z,7.25
2023-03-18T03:21:40.903Z,8.68
2023-03-18T03:24:08.252Z,5.97
2023-03-18T03:26:36.009Z,6.72
2023-03-18T03:29:04.819Z,7.72
2023-03-18T03:31:32.160Z,8.95
2023-03-18T03:33:59.084Z,6.75
2023-03-18T03:36:25.986Z,10.25
2023-03-18T03:38:52.700Z,10.00
2023-03-18T03:41:19.673Z,6.97
2023-03-18T03:43:48.208Z,7.80
2023-03-18T03:46:15.554Z,9.30
2023-03-18T03:48:42.331Z,7.43
2023-03-18T03:51:10.721Z,5.95
2023-03-18T03:53:38.665Z,7.78
2023-03-18T03:56:07.948Z,10.52
2023-03-18T03:58:35.569Z,9.95
2023-03-18T04:01:02.892Z,9.48
2023-03-18T04:03:29.946Z,8.35
2023-03-18T04:05:57.321Z,9.68
2023-03-18T04:08:24.036Z,9.13
2023-03-18T04:10:50.810Z,7.38
2023-03-18T04:13:17.602Z,8.45
2023-03-18T04:15:45.129Z,12.10
2023-03-18T04:18:13.142Z,6.38
2023-03-18T04:20:40.264Z,7.28
2023-03-18T04:23:08.062Z,7.15
2023-03-18T04:25:35.381Z,7.15
2023-03-18T04:28:03.218Z,4.75
2023-03-18T04:30:30.923Z,5.82
2023-03-18T04:33:00.161Z,9.93
2023-03-18T04:35:28.384Z,10.57
2023-03-18T04:37:55.229Z,10.48
2023-03-18T04:40:21.943Z,7.60
2023-03-18T04:42:48.726Z,7.30
2023-03-18T04:45:16.627Z,7.28
2023-03-18T04:47:44.447Z,6.43
2023-03-18T04:50:13.362Z,8.25
2023-03-18T04:52:41.398Z,6.45
2023-03-18T04:55:11.536Z,6.55
2023-03-18T04:57:38.777Z,7.25
2023-03-18T05:00:10.992Z,6.93
2023-03-18T05:02:39.537Z,10.32
2023-03-18T05:05:08.007Z,9.13
2023-03-18T05:07:35.055Z,5.75
2023-03-18T05:10:02.731Z,8.23
2023-03-18T05:12:29.430Z,9.55
2023-03-18T05:14:56.097Z,10.60
2023-03-18T05:17:22.804Z,7.47
2023-03-18T05:19:50.908Z,10.63
2023-03-18T05:22:22.027Z,10.18
2023-03-18T05:24:49.146Z,8.40
2023-03-18T05:27:18.511Z,10.18
2023-03-18T05:29:45.757Z,11.50
2023-03-18T05:32:14.698Z,6.22
2023-03-18T05:34:42.291Z,7.75
2023-03-18T05:37:11.369Z,6.40
2023-03-18T05:39:38.770Z,7.38
2023-03-18T05:42:06.443Z,7.18
2023-03-18T05:44:34.039Z,6.78
2023-03-18T05:47:03.611Z,5.55
2023-03-18T05:49:31.908Z,8.98
2023-03-18T05:52:00.963Z,6.93
2023-03-18T05:54:28.321Z,6.05
2023-03-18T05:56:55.368Z,7.30
2023-03-18T05:59:23.913Z,7.25
2023-03-18T06:01:51.409Z,7.38
2023-03-18T06:04:19.325Z,5.85
2023-03-18T06:06:46.437Z,8.20
2023-03-18T06:09:14.232Z,7.60
2023-03-18T06:11:40.993Z,6.22
2023-03-18T06:14:09.327Z,8.02
2023-03-18T06:16:36.762Z,6.03
2023-03-18T06:19:05.539Z,6.72
2023-03-18T06:21:34.656Z,8.60
2023-03-18T06:24:02.272Z,6.05
2023-03-18T06:26:29.430Z,9.07
2023-03-18T06:28:58.479Z,8.50
2023-03-18T06:31:26.050Z,6.75
2023-03-18T06:33:54.121Z,5.88
2023-03-18T06:36:22.683Z,10.38
2023-03-18T06:38:49.500Z,6.65
2023-03-18T06:41:16.723Z,6.68
2023-03-18T06:43:44.825Z,6.75
2023-03-18T06:46:11.569Z,9.13
2023-03-18T06:48:41.568Z,7.68
2023-03-18T06:51:08.689Z,7.97
2023-03-18T06:53:39.132Z,10.93
2023-03-18T06:56:06.475Z,9.35
2023-03-18T06:58:33.574Z,8.52
2023-03-18T07:01:02.620Z,7.20
2023-03-18T07:03:29.322Z,8.02
2023-03-18T07:05:57.301Z,5.00
2023-03-18T07:08:24.400Z,7.57
2023-03-18T07:10:57.375Z,9.63
2023-03-18T07:13:24.804Z,6.87
2023-03-18T07:15:51.493Z,6.00
2023-03-18T07:18:23.156Z,7.63
2023-03-18T07:20:50.244Z,9.20
2023-03-18T07:23:17.031Z,6.97
2023-03-18T07:25:44.767Z,7.32
2023-03-18T07:28:11.647Z,8.80
2023-03-18T07:30:38.626Z,7.28
2023-03-18T07:33:05.960Z,8.95
2023-03-18T07:35:32.979Z,9.88
2023-03-18T07:38:00.820Z,6.25
2023-03-18T07:40:27.599Z,8.05
2023-03-18T07:42:54.618Z,7.55
2023-03-18T07:45:22.886Z,6.95
2023-03-18T07:47:49.677Z,7.47
2023-03-18T07:50:17.068Z,7.00
2023-03-18T07:52:45.283Z,5.82
2023-03-18T07:55:12.197Z,7.93
2023-03-18T07:57:39.369Z,6.20
2023-03-18T08:00:08.069Z,8.25
2023-03-18T08:02:36.178Z,6.25
2023-03-18T08:05:03.920Z,6.68
2023-03-18T08:07:32.345Z,11.60
2023-03-18T08:09:59.561Z,7.70
2023-03-18T08:12:26.772Z,6.72
2023-03-18T08:14:53.457Z,6.80
2023-03-18T08:17:20.574Z,6.38
2023-03-18T08:19:48.915Z,5.80
2023-03-18T08:22:16.320Z,7.95
2023-03-18T08:24:45.426Z,5.93
2023-03-18T08:27:12.268Z,7.78
2023-03-18T08:29:40.307Z,6.70
2023-03-18T08:32:07.866Z,5.05
2023-03-18T08:34:35.889Z,6.40
2023-03-18T08:37:02.908Z,6.75
2023-03-18T08:39:29.560Z,7.53
2023-03-18T08:41:56.633Z,6.85
2023-03-18T08:44:23.356Z,6.45
2023-03-18T08:46:50.017Z,8.45
2023-03-18T08:49:17.647Z,5.68
2023-03-18T08:51:45.281Z,8.95
2023-03-18T08:54:13.448Z,7.90
2023-03-18T08:56:40.259Z,6.80
2023-03-18T08:59:07.127Z,5.68
2023-03-18T09:01:35.354Z,4.93
2023-03-18T09:04:02.157Z,4.80
2023-03-18T09:06:30.045Z,4.63
2023-03-18T09:08:57.591Z,5.80
2023-03-18T09:11:24.847Z,4.60
2023-03-18T09:13:52.297Z,4.38
2023-03-18T09:16:19.070Z,4.70
2023-03-18T09:18:48.995Z,6.97
2023-03-18T09:21:15.851Z,5.28
2023-03-18T09:23:43.178Z,4.82
2023-03-18T09:26:12.904Z,5.05
2023-03-18T09:28:39.643Z,5.05
2023-03-18T09:31:06.669Z,4.53
2023-03-18T09:33:33.482Z,5.70
2023-03-18T09:36:00.265Z,4.15
2023-03-18T09:38:27.876Z,5.15
2023-03-18T09:41:12.589Z,5.38
2023-03-18T09:43:57.977Z,3.80
2023-03-18T09:46:48.771Z,6.18
2023-03-18T09:49:42.706Z,3.72
2023-03-18T09:52:25.754Z,5.83
2023-03-18T09:55:18.032Z,11.32
2023-03-18T09:57:52.017Z,3.22
2023-03-18T10:00:29.579Z,7.70
2023-03-18T10:03:11.358Z,4.55
2023-03-18T10:05:52.274Z,12.63
2023-03-18T10:08:20.208Z,3.15
2023-03-18T10:10:49.085Z,3.25
2023-03-18T10:13:15.727Z,5.38
2023-03-18T10:15:51.932Z,3.30
2023-03-18T10:18:26.483Z,6.35
2023-03-18T10:21:16.208Z,5.50
2023-03-18T10:24:04.838Z,8.75
2023-03-18T10:27:02.013Z,4.53
2023-03-18T10:29:53.205Z,4.68
2023-03-18T10:32:49.209Z,5.50
2023-03-18T10:35:35.962Z,3.65
2023-03-18T10:38:05.642Z,4.88
2023-03-18T10:40:37.313Z,6.60
2023-03-18T10:43:04.770Z,3.53
2023-03-18T10:45:38.037Z,3.13
2023-03-18T10:48:13.438Z,4.10
2023-03-18T10:50:46.358Z,6.03
2023-03-18T10:53:36.946Z,5.15
2023-03-18T10:56:17.106Z,3.03
2023-03-18T10:58:46.276Z,5.45
2023-03-18T11:01:19.026Z,5.03
2023-03-18T11:03:54.683Z,6.10
2023-03-18T11:06:46.863Z,4.25
2023-03-18T11:09:20.395Z,3.53
2023-03-18T11:11:49.266Z,4.45
2023-03-18T11:14:22.244Z,2.75
2023-03-18T11:16:50.325Z,4.22
2023-03-18T11:19:24.987Z,3.83
2023-03-18T11:22:02.175Z,3.72
2023-03-18T11:24:42.667Z,4.00
2023-03-18T11:27:18.528Z,3.08
2023-03-18T11:29:58.856Z,3.45
2023-03-18T11:32:38.159Z,4.18
2023-03-18T11:35:07.400Z,4.07
2023-03-18T11:37:40.617Z,5.72
2023-03-18T11:40:07.620Z,4.87
2023-03-18T11:42:34.355Z,3.10
2023-03-18T11:45:02.866Z,5.95
2023-03-18T11:47:32.855Z,8.40
2023-03-18T11:50:01.017Z,4.18
2023-03-18T11:52:37.178Z,5.40
2023-03-18T11:55:09.139Z,3.33
2023-03-18T11:58:01.579Z,5.70
2023-03-18T12:01:00.584Z,4.35
2023-03-18T12:03:48.694Z,3.60
2023-03-18T12:06:23.672Z,6.70
2023-03-18T12:09:11.963Z,5.50
2023-03-18T12:11:38.700Z,4.47
2023-03-18T12:14:17.483Z,3.55
2023-03-18T12:17:22.041Z,4.25
2023-03-18T12:20:13.620Z,3.67
2023-03-18T12:23:10.690Z,3.60
2023-03-18T12:25:54.753Z,5.70
2023-03-18T12:28:30.092Z,6.68
2023-03-18T12:31:14.178Z,4.85
2023-03-18T12:33:56.527Z,7.50
2023-03-18T12:36:51.638Z,3.42
2023-03-18T12:39:38.165Z,4.13
2023-03-18T12:43:02.309Z,3.40
2023-03-18T12:45:35.724Z,5.75
2023-03-18T12:48:15.081Z,3.60
2023-03-18T12:51:03.745Z,5.70
2023-03-18T12:53:44.581Z,4.32
2023-03-18T12:56:18.700Z,3.85
2023-03-18T12:58:50.516Z,3.60
2023-03-18T13:01:47.541Z,4.75
2023-03-18T13:04:28.192Z,5.85
2023-03-18T13:07:02.073Z,4.93
2023-03-18T13:09:40.449Z,4.07
2023-03-18T13:12:31.409Z,8.02
2023-03-18T13:15:00.346Z,5.03
2023-03-18T13:17:34.716Z,5.88
2023-03-18T13:20:04.517Z,5.38
2023-03-18T13:22:43.450Z,3.65
2023-03-18T13:25:56.897Z,4.47
2023-03-18T13:28:39.025Z,6.18
2023-03-18T13:31:20.972Z,3.72
2023-03-18T13:34:28.989Z,6.78
2023-03-18T13:37:34.155Z,4.00
2023-03-18T13:40:38.778Z,5.72
2023-03-18T13:43:13.504Z,4.68
2023-03-18T13:48:14.868Z,4.40
2023-03-18T13:50:45.058Z,3.78
2023-03-18T13:53:32.474Z,3.25
2023-03-18T13:55:59.111Z,3.33
2023-03-18T13:58:48.027Z,5.63
2023-03-18T14:01:32.773Z,4.00
2023-03-18T14:04:21.160Z,5.90
2023-03-18T14:07:13.608Z,7.85
2023-03-18T14:10:19.527Z,3.88
2023-03-18T14:12:49.269Z,7.90
2023-03-18T14:15:39.144Z,3.50
2023-03-18T14:18:27.296Z,7.03
2023-03-18T14:21:00.434Z,4.70
2023-03-18T14:23:41.843Z,5.28
2023-03-18T14:26:22.039Z,6.20
2023-03-18T14:28:55.166Z,6.53
2023-03-18T14:31:40.356Z,4.43
2023-03-18T14:34:19.206Z,5.43
2023-03-18T14:36:56.387Z,6.47
2023-03-18T14:39:41.461Z,9.70
2023-03-18T14:42:31.712Z,9.45
2023-03-18T14:45:19.522Z,3.47
2023-03-18T14:47:55.205Z,9.50
2023-03-18T14:50:48.207Z,10.43
2023-03-18T14:53:34.541Z,4.00
2023-03-18T14:56:03.824Z,8.20
2023-03-18T14:58:32.437Z,7.88
2023-03-18T15:01:13.735Z,6.63
2023-03-18T15:03:46.701Z,6.03
2023-03-18T15:06:20.662Z,5.22
2023-03-18T15:09:04.561Z,7.85
2023-03-18T15:11:38.281Z,5.72
2023-03-18T15:14:12.217Z,6.32
2023-03-18T15:16:39.381Z,8.75
2023-03-18T15:19:06.967Z,8.48
2023-03-18T15:21:35.313Z,5.70
2023-03-18T15:24:07.638Z,5.13
2023-03-18T15:26:39.728Z,7.80
2023-03-18T15:29:24.390Z,6.13
2023-03-18T15:31:52.980Z,4.40
2023-03-18T15:34:33.561Z,4.50
2023-03-18T15:37:03.452Z,7.70
2023-03-18T15:39:35.284Z,3.83
2023-03-18T15:42:06.778Z,5.00
2023-03-18T15:44:39.521Z,7.10
2023-03-18T15:47:30.837Z,6.93
2023-03-18T15:50:14.594Z,4.07
2023-03-18T15:52:43.007Z,5.13
2023-03-18T15:55:37.729Z,4.10
2023-03-18T16:00:34.138Z,6.00
2023-03-18T16:03:02.653Z,7.63
2023-03-18T16:05:29.513Z,5.20
2023-03-18T16:07:56.963Z,5.88
2023-03-18T16:10:26.342Z,3.17
2023-03-18T16:12:59.931Z,4.18
2023-03-18T16:15:27.983Z,2.88
2023-03-18T16:17:55.936Z,3.53
2023-03-18T16:20:26.118Z,5.22
2023-03-18T16:22:52.840Z,2.95
2023-03-18T16:25:20.354Z,4.90
2023-03-18T16:27:54.548Z,5.68
2023-03-18T16:30:27.774Z,5.50
2023-03-18T16:32:55.413Z,4.10
2023-03-18T16:35:25.466Z,4.15
2023-03-18T16:37:53.358Z,3.53
2023-03-18T16:40:26.563Z,4.88
2023-03-18T16:42:53.993Z,3.30
2023-03-18T16:45:30.446Z,3.15
2023-03-18T16:48:06.700Z,4.57
2023-03-18T16:50:39.415Z,3.60
2023-03-18T16:53:27.325Z,6.13
2023-03-18T16:55:58.430Z,3.65
2023-03-18T16:58:35.242Z,3.88
2023-03-18T17:01:06.215Z,4.70
2023-03-18T17:03:34.564Z,2.05
2023-03-18T17:06:02.050Z,3.33
2023-03-18T17:08:30.182Z,3.70
2023-03-18T17:11:01.910Z,4.50
2023-03-18T17:13:31.294Z,5.13
2023-03-18T17:15:58.012Z,4.28
2023-03-18T17:18:25.072Z,4.43
2023-03-18T17:20:52.038Z,5.45
2023-03-18T17:23:25.338Z,2.90
2023-03-18T17:25:59.227Z,3.38
2023-03-18T17:28:43.901Z,5.25
2023-03-18T17:31:12.502Z,9.13
2023-03-18T17:33:39.281Z,5.85
2023-03-18T17:36:07.188Z,4.60
2023-03-18T17:38:37.304Z,3.20
2023-03-18T17:41:12.468Z,7.75
2023-03-18T17:43:39.205Z,4.53
2023-03-18T17:46:06.224Z,4.30
2023-03-18T17:48:36.219Z,4.38
2023-03-18T17:51:07.299Z,6.45
2023-03-18T17:53:48.752Z,4.22
2023-03-18T17:56:17.260Z,9.65
2023-03-18T17:58:45.807Z,3.83
2023-03-18T18:01:22.421Z,9.90
2023-03-18T18:03:49.347Z,6.78
2023-03-18T18:06:18.551Z,9.23
2023-03-18T18:08:46.283Z,10.63
2023-03-18T18:11:26.590Z,7.43
2023-03-18T18:14:01.170Z,9.10
2023-03-18T18:16:27.969Z,13.85
2023-03-18T18:18:54.709Z,14.10
2023-03-18T18:21:24.471Z,27.40
2023-03-18T18:23:51.369Z,46.60
2023-03-18T18:26:19.956Z,31.40
2023-03-18T18:28:48.518Z,15.18
2023-03-18T18:31:20.087Z,12.45
2023-03-18T18:33:50.117Z,10.40
2023-03-18T18:36:18.014Z,6.53
2023-03-18T18:38:44.995Z,6.72
2023-03-18T18:41:11.768Z,8.15
2023-03-18T18:43:38.727Z,5.55
2023-03-18T18:46:14.764Z,9.85
2023-03-18T18:48:43.689Z,8.75
2023-03-18T18:51:16.210Z,12.32
2023-03-18T18:53:43.589Z,7.45
2023-03-18T18:56:18.587Z,8.43
2023-03-18T18:58:46.254Z,8.95
2023-03-18T19:01:13.621Z,12.25
2023-03-18T19:03:41.562Z,8.25
2023-03-18T19:06:25.667Z,8.82
2023-03-18T19:08:54.278Z,8.90
2023-03-18T19:11:21.060Z,10.20
2023-03-18T19:13:47.836Z,7.60
2023-03-18T19:16:30.194Z,8.18
2023-03-18T19:18:57.421Z,5.68
2023-03-18T19:21:24.279Z,9.70
2023-03-18T19:23:51.229Z,11.88
2023-03-18T19:26:18.654Z,11.27
2023-03-18T19:28:57.637Z,5.88
2023-03-18T19:31:27.253Z,7.45
2023-03-18T19:33:54.457Z,6.60
2023-03-18T19:36:30.947Z,4.68
2023-03-18T19:38:59.841Z,7.35
2023-03-18T19:41:27.342Z,6.18
2023-03-18T19:44:01.866Z,6.68
2023-03-18T19:46:38.976Z,8.48
2023-03-18T19:49:19.555Z,7.22
2023-03-18T19:51:46.994Z,11.18
2023-03-18T19:54:28.270Z,9.38
2023-03-18T19:57:01.085Z,9.93
2023-03-18T19:59:38.044Z,7.15
2023-03-18T20:02:16.804Z,6.53
2023-03-18T20:04:43.740Z,8.73
2023-03-18T20:07:10.738Z,7.22
2023-03-18T20:09:38.028Z,4.30
2023-03-18T20:12:06.052Z,6.05
2023-03-18T20:14:38.369Z,9.32
2023-03-18T20:17:23.876Z,6.95
2023-03-18T20:19:51.947Z,4.82
2023-03-18T20:22:31.601Z,3.58
2023-03-18T20:25:00.566Z,6.35
2023-03-18T20:27:27.764Z,7.00
2023-03-18T20:29:54.507Z,5.80
2023-03-18T20:32:21.238Z,4.40
2023-03-18T20:34:49.516Z,6.85
2023-03-18T20:37:34.988Z,5.65
2023-03-18T20:40:11.136Z,6.32
2023-03-18T20:42:37.889Z,7.95
2023-03-18T20:45:07.372Z,10.60
2023-03-18T20:47:34.060Z,7.68
2023-03-18T20:50:00.728Z,7.85
2023-03-18T20:52:31.120Z,6.65
2023-03-18T20:54:58.396Z,6.95
2023-03-18T20:57:28.515Z,6.65
2023-03-18T20:59:55.407Z,9.20
2023-03-18T21:02:36.127Z,7.43
2023-03-18T21:05:04.210Z,6.95
2023-03-18T21:07:31.142Z,5.72
2023-03-18T21:09:57.951Z,5.15
2023-03-18T21:12:28.066Z,3.75
2023-03-18T21:14:54.785Z,7.78
2023-03-18T21:17:24.305Z,5.97
2023-03-18T21:19:53.427Z,4.60
2023-03-18T21:22:23.390Z,5.35
2023-03-18T21:24:57.744Z,6.63
2023-03-18T21:27:27.145Z,6.30
2023-03-18T21:29:54.971Z,5.28
2023-03-18T21:32:31.549Z,5.43
2023-03-18T21:34:59.776Z,6.80
2023-03-18T21:37:27.756Z,4.40
2023-03-18T21:39:55.123Z,5.82
2023-03-18T21:42:25.106Z,5.63
2023-03-18T21:44:53.087Z,9.27
2023-03-18T21:47:24.658Z,4.97
2023-03-18T21:49:51.630Z,21.85
2023-03-18T21:52:19.856Z,27.00
2023-03-18T21:54:49.806Z,30.95
2023-03-18T21:57:23.031Z,33.78
2023-03-18T21:59:52.593Z,17.27
2023-03-18T22:02:30.018Z,29.92
2023-03-18T22:05:02.111Z,35.20
2023-03-18T22:07:33.068Z,28.05
2023-03-18T22:10:01.155Z,30.48
2023-03-18T22:12:33.127Z,21.58
2023-03-18T22:15:00.813Z,18.38
2023-03-18T22:17:27.454Z,17.77
2023-03-18T22:19:56.049Z,14.18
2023-03-18T22:22:25.655Z,11.85
2023-03-18T22:24:52.767Z,14.75
2023-03-18T22:27:20.920Z,8.50
2023-03-18T22:29:49.227Z,8.23
2023-03-18T22:32:27.938Z,7.40
2023-03-18T22:34:57.457Z,6.95
2023-03-18T22:37:27.251Z,5.10
2023-03-18T22:39:55.146Z,6.47
2023-03-18T22:42:24.826Z,9.63
2023-03-18T22:44:52.770Z,8.38
2023-03-18T22:47:25.333Z,5.05
2023-03-18T22:49:54.081Z,7.82
2023-03-18T22:52:28.094Z,5.75
2023-03-18T22:54:59.460Z,5.78
2023-03-18T22:57:28.118Z,9.05
2023-03-18T22:59:56.629Z,6.20
2023-03-18T23:02:26.453Z,9.35
2023-03-18T23:04:54.917Z,6.50
2023-03-18T23:07:25.528Z,7.38
2023-03-18T23:09:56.836Z,7.45
2023-03-18T23:12:27.267Z,6.75
2023-03-18T23:14:54.377Z,5.55
2023-03-18T23:17:24.226Z,6.18
2023-03-18T23:19:52.351Z,5.85
2023-03-18T23:22:26.147Z,6.80
2023-03-18T23:24:54.794Z,7.85
2023-03-18T23:27:22.782Z,4.82
2023-03-18T23:29:49.633Z,8.15
2023-03-18T23:32:17.787Z,8.32
2023-03-18T23:34:45.345Z,5.65
2023-03-18T23:37:13.997Z,6.65
2023-03-18T23:39:43.184Z,5.70
2023-03-18T23:42:14.226Z,9.75
2023-03-18T23:44:41.103Z,7.80
2023-03-18T23:47:09.361Z,7.50
2023-03-18T23:49:36.750Z,6.53
2023-03-18T23:52:09.894Z,8.07
2023-03-18T23:54:36.754Z,6.38
2023-03-18T23:57:04.591Z,5.05
2023-03-18T23:59:31.924Z,5.85
